Time;durP1;ratioP1;P1;durP2;ratioP2;P2;SDS_P1;SDS_P2;PMS_P1;PMS_P2;Temp;Humidity;BMP_temperature;BMP_pressure;BME280_temperature;BME280_humidity;BME280_pressure;Samples;Min_cycle;Max_cycle;Signal;HPM_P1;HPM_P2
2023/05/02 00:02:46;;;;;;;32.83;27.53;;;9.90;99.90;;;;;;2613787;54;20405;-79
2023/05/02 00:08:34;;;;;;;42.77;30.20;;;9.90;99.90;;;;;;2614594;54;20980;-79
2023/05/02 00:14:21;;;;;;;36.53;28.63;;;10.00;99.90;;;;;;2615773;54;20162;-79
2023/05/02 00:20:10;;;;;;;47.90;29.90;;;10.00;99.90;;;;;;2613807;54;20198;-79
2023/05/02 00:23:14;;;;;;;46.60;33.47;;;10.10;99.90;;;;;;2611864;54;20386;-78
2023/05/02 00:25:46;;;;;;;45.93;33.13;;;10.00;99.90;;;;;;2613407;54;20412;-79
2023/05/02 00:31:34;;;;;;;46.80;31.10;;;10.00;99.90;;;;;;2613346;54;20869;-79
2023/05/02 00:37:26;;;;;;;46.67;33.60;;;10.20;99.90;;;;;;2614091;54;20512;-79
2023/05/02 00:43:15;;;;;;;56.93;34.67;;;10.30;99.90;;;;;;2613748;54;20411;-80
2023/05/02 00:49:02;;;;;;;46.43;33.33;;;10.40;99.90;;;;;;2612246;54;20395;-78
2023/05/02 00:52:22;;;;;;;54.57;33.97;;;10.40;99.90;;;;;;2611957;54;20404;-79
2023/05/02 00:54:48;;;;;;;51.50;35.60;;;10.50;99.90;;;;;;2612149;39;20674;-78
2023/05/02 01:13:47;;;;;;;61.13;36.60;;;10.20;99.90;;;;;;2611414;39;20822;-79
2023/05/02 01:19:38;;;;;;;63.47;38.40;;;10.30;99.90;;;;;;2613589;54;20379;-78
2023/05/02 01:31:49;;;;;;;57.23;36.77;;;10.50;99.90;;;;;;2612507;54;21472;-79
2023/05/02 01:37:39;;;;;;;56.37;37.83;;;10.50;99.90;;;;;;2612943;46;20514;-77
2023/05/02 01:43:29;;;;;;;56.93;36.10;;;10.50;99.90;;;;;;2612006;39;20809;-78
2023/05/02 01:49:18;;;;;;;53.23;35.43;;;10.50;99.90;;;;;;2613937;54;20402;-79
2023/05/02 01:55:25;;;;;;;49.93;32.23;;;10.50;99.90;;;;;;2615572;54;20386;-80
2023/05/02 02:01:15;;;;;;;55.10;31.40;;;10.40;99.90;;;;;;2611525;54;20391;-80
2023/05/02 02:07:07;;;;;;;44.47;27.50;;;10.40;99.90;;;;;;2613565;54;20379;-80
2023/05/02 02:19:14;;;;;;;44.07;28.20;;;10.40;99.90;;;;;;2615658;54;20501;-80
2023/05/02 02:25:04;;;;;;;38.07;26.70;;;10.50;99.90;;;;;;2614545;54;20347;-80
2023/05/02 02:30:52;;;;;;;42.87;25.87;;;10.50;99.90;;;;;;2614681;54;20387;-78
2023/05/02 02:43:19;;;;;;;43.90;25.83;;;10.40;99.90;;;;;;2616400;54;20418;-80
2023/05/02 02:49:38;;;;;;;36.80;23.37;;;10.40;99.90;;;;;;2617342;54;20399;-80
2023/05/02 03:02:15;;;;;;;30.57;18.37;;;10.40;99.90;;;;;;2612298;54;20408;-79
2023/05/02 03:08:03;;;;;;;31.60;19.70;;;10.40;99.90;;;;;;2610614;54;20391;-79
2023/05/02 03:13:51;;;;;;;24.67;16.33;;;10.40;99.90;;;;;;2613096;54;20133;-78
2023/05/02 03:19:39;;;;;;;26.87;16.63;;;10.40;99.90;;;;;;2614079;54;20449;-77
2023/05/02 03:25:27;;;;;;;29.23;17.23;;;10.40;99.90;;;;;;2611098;54;20403;-78
2023/05/02 03:31:14;;;;;;;26.03;16.87;;;10.40;99.90;;;;;;2613760;54;20150;-79
2023/05/02 03:37:02;;;;;;;27.63;15.83;;;10.40;99.90;;;;;;2615200;54;20438;-79
2023/05/02 03:42:50;;;;;;;28.93;16.53;;;10.50;99.90;;;;;;2615465;54;20150;-79
2023/05/02 03:48:38;;;;;;;28.73;18.67;;;10.50;99.90;;;;;;2616467;54;20131;-79
2023/05/02 03:57:51;;;;;;;23.83;14.33;;;10.60;99.90;;;;;;2616094;54;20559;-79
2023/05/02 04:03:39;;;;;;;22.07;13.77;;;10.60;99.90;;;;;;2616525;54;20435;-79
2023/05/02 04:09:26;;;;;;;19.83;13.53;;;10.60;99.90;;;;;;2618261;54;20251;-80
2023/05/02 04:15:14;;;;;;;16.57;13.03;;;10.60;99.90;;;;;;2615974;54;20126;-80
2023/05/02 04:21:02;;;;;;;23.50;14.30;;;10.70;99.90;;;;;;2617503;54;20130;-79
2023/05/02 04:26:50;;;;;;;21.17;14.40;;;10.70;99.90;;;;;;2617830;54;20151;-79
2023/05/02 04:32:38;;;;;;;23.73;13.00;;;10.60;99.90;;;;;;2615229;54;20383;-79
2023/05/02 04:38:26;;;;;;;22.97;16.47;;;10.50;99.90;;;;;;2617228;54;20515;-80
2023/05/02 04:44:14;;;;;;;22.60;13.90;;;10.50;99.90;;;;;;2617816;54;20170;-82
2023/05/02 04:50:02;;;;;;;20.13;13.70;;;10.40;99.90;;;;;;2615516;54;20130;-80
2023/05/02 04:53:23;;;;;;;28.77;17.27;;;10.40;99.90;;;;;;2615485;54;20420;-79
2023/05/02 04:55:49;;;;;;;29.00;17.17;;;10.30;99.90;;;;;;2613112;47;20163;-78
2023/05/02 05:01:36;;;;;;;26.50;17.30;;;10.40;99.90;;;;;;2610292;54;20205;-79
2023/05/02 05:07:24;;;;;;;30.87;18.97;;;10.30;99.90;;;;;;2611402;54;20133;-79
2023/05/02 05:13:12;;;;;;;30.93;17.50;;;10.30;99.90;;;;;;2611012;54;20131;-79
2023/05/02 05:19:00;;;;;;;29.67;17.57;;;10.20;99.90;;;;;;2612841;54;20379;-80
2023/05/02 05:24:52;;;;;;;16.67;12.50;;;10.10;99.90;;;;;;2608715;54;21933;-80
2023/05/02 05:30:40;;;;;;;18.23;12.07;;;10.00;99.90;;;;;;2609280;54;20392;-80
2023/05/02 05:36:28;;;;;;;14.50;9.67;;;9.90;99.90;;;;;;2612494;39;20646;-79
2023/05/02 05:42:16;;;;;;;14.37;9.33;;;9.90;99.90;;;;;;2610074;46;20943;-80
2023/05/02 05:48:04;;;;;;;17.53;9.67;;;9.90;99.90;;;;;;2612464;54;20130;-80
2023/05/02 05:57:55;;;;;;;14.13;10.67;;;10.00;99.90;;;;;;2610351;39;21660;-79
2023/05/02 06:03:43;;;;;;;12.13;9.00;;;10.00;99.90;;;;;;2609777;54;20426;-80
2023/05/02 06:09:30;;;;;;;12.90;8.73;;;10.00;99.90;;;;;;2609627;54;20146;-80
2023/05/02 06:15:18;;;;;;;13.50;9.40;;;10.10;99.90;;;;;;2607882;54;20456;-77
2023/05/02 06:21:06;;;;;;;14.30;11.30;;;10.10;99.90;;;;;;2614033;54;20153;-78
2023/05/02 06:26:53;;;;;;;10.90;9.77;;;10.30;99.90;;;;;;2613148;54;20150;-78
2023/05/02 06:32:43;;;;;;;8.33;7.63;;;10.40;99.90;;;;;;2609174;54;20138;-78
2023/05/02 06:38:31;;;;;;;13.60;10.73;;;10.60;99.90;;;;;;2607677;54;20663;-81
2023/05/02 06:44:19;;;;;;;9.30;8.50;;;10.80;99.90;;;;;;2611002;39;20785;-79
2023/05/02 06:50:07;;;;;;;10.10;7.50;;;10.90;99.90;;;;;;2611341;54;20153;-78
2023/05/02 06:55:55;;;;;;;9.93;7.30;;;11.20;99.90;;;;;;2613480;39;20785;-79
2023/05/02 07:05:05;;;;;;;19.40;7.47;;;10.80;99.90;;;;;;2609086;39;20842;-79
2023/05/02 07:10:53;;;;;;;8.13;7.13;;;10.70;99.90;;;;;;2611543;54;20392;-78
2023/05/02 07:16:41;;;;;;;8.80;7.90;;;10.70;99.90;;;;;;2611687;54;20153;-78
2023/05/02 07:22:28;;;;;;;13.23;7.40;;;10.60;99.90;;;;;;2610315;54;20165;-79
2023/05/02 07:28:16;;;;;;;9.87;7.40;;;10.40;99.90;;;;;;2612887;54;20218;-79
2023/05/02 07:34:04;;;;;;;10.87;6.80;;;10.20;99.90;;;;;;2614350;54;20122;-79
2023/05/02 07:39:52;;;;;;;6.03;5.50;;;9.90;99.90;;;;;;2613272;54;20298;-78
2023/05/02 07:45:41;;;;;;;9.10;4.80;;;9.70;99.90;;;;;;2613079;54;20670;-79
2023/05/02 07:51:29;;;;;;;3.20;2.90;;;9.60;99.90;;;;;;2609901;54;20395;-80
2023/05/02 07:54:29;;;;;;;5.10;3.10;;;9.60;99.90;;;;;;2613557;39;20798;-79
2023/05/02 07:56:57;;;;;;;4.67;3.80;;;9.60;99.90;;;;;;2612731;47;20182;-81
2023/05/02 08:06:08;;;;;;;4.30;3.20;;;9.80;99.90;;;;;;2613609;54;20511;-79
2023/05/02 08:11:56;;;;;;;5.07;3.50;;;10.00;99.90;;;;;;2613217;39;21059;-80
2023/05/02 08:17:44;;;;;;;3.43;3.13;;;10.00;99.90;;;;;;2612883;39;20789;-80
2023/05/02 08:20:50;;;;;;;3.70;3.40;;;9.80;99.90;;;;;;2612675;54;20487;-80
2023/05/02 08:23:16;;;;;;;5.00;4.50;;;9.70;99.90;;;;;;2611889;47;21080;-80
2023/05/02 08:29:04;;;;;;;3.97;3.43;;;9.50;99.90;;;;;;2614208;54;20247;-78
2023/05/02 08:34:56;;;;;;;5.77;4.00;;;9.00;99.90;;;;;;2610566;54;20402;-80
2023/05/02 08:40:45;;;;;;;5.87;4.60;;;8.70;99.90;;;;;;2614042;54;20439;-81
2023/05/02 08:46:36;;;;;;;7.80;4.47;;;8.60;99.90;;;;;;2612778;54;20489;-80
2023/05/02 08:52:25;;;;;;;12.60;7.50;;;8.50;99.90;;;;;;2613951;54;20394;-81
2023/05/02 08:58:13;;;;;;;13.17;7.13;;;8.50;99.90;;;;;;2613848;54;20423;-80
2023/05/02 09:01:29;;;;;;;10.43;6.73;;;8.60;99.90;;;;;;2612986;54;20423;-79
2023/05/02 09:03:57;;;;;;;8.90;5.97;;;8.50;99.90;;;;;;2613495;54;20162;-79
2023/05/02 09:09:45;;;;;;;8.10;5.30;;;8.80;99.90;;;;;;2612428;54;20415;-79
2023/05/02 09:15:33;;;;;;;6.47;5.30;;;8.70;99.90;;;;;;2612117;54;20142;-78
2023/05/02 09:27:55;;;;;;;7.93;4.73;;;9.00;99.90;;;;;;2614805;54;20467;-80
2023/05/02 09:33:44;;;;;;;7.50;5.53;;;8.90;99.90;;;;;;2614980;54;20399;-79
2023/05/02 09:39:32;;;;;;;8.43;5.37;;;9.20;99.90;;;;;;2613326;39;20852;-79
2023/05/02 09:45:21;;;;;;;10.80;4.70;;;9.60;99.90;;;;;;2613510;39;20563;-79
2023/05/02 09:48:43;;;;;;;11.33;5.27;;;9.70;99.90;;;;;;2610553;47;20396;-80
2023/05/02 10:01:28;;;;;;;6.10;5.40;;;10.60;99.90;;;;;;2614574;54;20411;-79
2023/05/02 10:03:54;;;;;;;9.00;5.23;;;11.00;99.90;;;;;;2615155;54;20428;-80
2023/05/02 10:09:44;;;;;;;6.30;5.33;;;11.60;99.90;;;;;;2613961;54;20402;-80
2023/05/02 10:15:33;;;;;;;8.43;7.23;;;11.50;99.90;;;;;;2612650;54;20420;-82
2023/05/02 10:21:28;;;;;;;9.33;8.53;;;11.70;99.90;;;;;;2612670;54;20387;-80
2023/05/02 10:27:18;;;;;;;9.07;8.27;;;12.10;99.90;;;;;;2611649;54;20414;-81
2023/05/02 10:33:07;;;;;;;9.80;8.33;;;12.60;99.90;;;;;;2612444;31;20926;-81
2023/05/02 10:38:55;;;;;;;10.67;9.20;;;13.40;94.10;;;;;;2613063;54;20364;-82
2023/05/02 10:44:43;;;;;;;11.97;10.93;;;14.10;75.90;;;;;;2614695;54;20163;-82
2023/05/02 10:57:24;;;;;;;9.83;8.93;;;12.50;90.30;;;;;;2612845;39;20756;-81
2023/05/02 11:37:27;;;;;;;12.60;9.70;;;11.70;90.10;;;;;;2613441;54;20395;-79
2023/05/02 11:43:16;;;;;;;9.33;8.53;;;11.70;86.00;;;;;;2613931;54;20161;-81
2023/05/02 11:49:05;;;;;;;10.80;8.77;;;11.80;75.10;;;;;;2612970;54;20434;-80
2023/05/02 11:54:55;;;;;;;10.50;9.80;;;12.10;58.50;;;;;;2616130;54;20921;-81
2023/05/02 12:00:45;;;;;;;8.77;8.03;;;12.90;43.50;;;;;;2617290;54;20384;-81
2023/05/02 12:06:33;;;;;;;9.03;8.50;;;12.80;23.00;;;;;;2615462;39;20814;-79
2023/05/02 12:09:37;;;;;;;9.33;8.63;;;13.20;30.40;;;;;;2615008;39;20831;-78
2023/05/02 12:12:03;;;;;;;12.97;9.40;;;13.50;25.60;;;;;;2613824;47;20434;-78
2023/05/02 12:17:51;;;;;;;9.80;9.10;;;13.30;20.60;;;;;;2615557;54;20789;-80
2023/05/02 12:23:40;;;;;;;11.70;10.80;;;13.10;17.90;;;;;;2613498;54;20450;-79
2023/05/02 12:29:39;;;;;;;11.60;10.80;;;14.80;13.90;;;;;;2614696;54;20913;-81
2023/05/02 12:35:29;;;;;;;12.87;11.70;;;15.00;1.00;;;;;;2612041;54;20419;-80
2023/05/02 12:41:17;;;;;;;13.07;12.27;;;13.20;1.00;;;;;;2610912;54;21013;-81
2023/05/02 12:47:07;;;;;;;12.47;11.67;;;13.40;1.00;;;;;;2611543;54;20552;-79
2023/05/02 12:52:58;;;;;;;13.03;12.13;;;15.00;1.00;;;;;;2616091;39;20902;-80
2023/05/02 12:58:47;;;;;;;11.87;11.17;;;14.60;1.00;;;;;;2609096;54;20414;-81
2023/05/02 13:01:33;;;;;;;12.90;11.80;;;14.50;1.00;;;;;;2612352;54;20412;-80
2023/05/02 13:03:59;;;;;;;13.40;12.40;;;13.90;1.00;;;;;;2609375;54;20431;-80
2023/05/02 13:09:46;;;;;;;13.77;12.60;;;13.70;1.00;;;;;;2615702;54;20325;-81
2023/05/02 13:15:34;;;;;;;14.57;13.63;;;13.70;1.00;;;;;;2613158;54;20122;-82
2023/05/02 13:21:22;;;;;;;14.50;13.50;;;14.10;1.00;;;;;;2613578;54;20628;-79
2023/05/02 13:27:11;;;;;;;13.30;12.33;;;14.10;1.00;;;;;;2612519;54;20131;-80
2023/05/02 13:32:59;;;;;;;12.00;11.30;;;13.70;1.00;;;;;;2613574;54;20424;-80
2023/05/02 13:38:47;;;;;;;13.50;12.40;;;15.20;1.00;;;;;;2612978;54;21030;-80
2023/05/02 13:44:35;;;;;;;14.00;13.00;;;14.50;1.00;;;;;;2614051;39;20542;-81
2023/05/02 13:50:23;;;;;;;13.37;12.47;;;15.00;1.00;;;;;;2613045;54;20426;-81
2023/05/02 13:56:11;;;;;;;14.93;13.83;;;14.20;1.00;;;;;;2612377;54;20130;-80
2023/05/02 14:06:01;;;;;;;14.77;13.67;;;15.50;1.00;;;;;;2613506;54;20887;-80
2023/05/02 14:11:49;;;;;;;15.43;14.37;;;14.70;1.00;;;;;;2611983;54;20480;-80
2023/05/02 14:17:37;;;;;;;13.57;12.77;;;15.70;1.00;;;;;;2612974;54;20126;-81
2023/05/02 14:23:28;;;;;;;14.10;13.40;;;15.70;1.00;;;;;;2611888;54;20151;-82
2023/05/02 14:26:48;;;;;;;14.30;13.10;;;15.60;1.00;;;;;;2614117;54;20423;-82
2023/05/02 14:29:13;;;;;;;14.77;13.67;;;16.10;1.00;;;;;;2611940;39;20892;-81
2023/05/02 14:35:01;;;;;;;15.73;14.43;;;14.10;1.00;;;;;;2614328;54;20130;-79
2023/05/02 14:40:49;;;;;;;15.57;14.23;;;15.10;1.00;;;;;;2613978;54;20246;-83
2023/05/02 14:46:38;;;;;;;15.67;13.90;;;15.10;1.00;;;;;;2611118;39;20569;-80
2023/05/02 14:52:26;;;;;;;15.23;13.80;;;15.30;1.00;;;;;;2613853;54;20940;-81
2023/05/02 14:58:19;;;;;;;15.80;14.53;;;15.20;1.00;;;;;;2612487;54;20961;-81
2023/05/02 15:01:31;;;;;;;15.20;13.90;;;15.00;1.00;;;;;;2610194;54;21312;-80
2023/05/02 15:03:56;;;;;;;15.67;14.50;;;14.50;1.00;;;;;;2612450;47;20478;-80
2023/05/02 15:09:44;;;;;;;15.90;14.90;;;14.30;1.00;;;;;;2613237;54;20157;-80
2023/05/02 15:15:32;;;;;;;15.63;14.43;;;14.70;1.00;;;;;;2614730;39;20831;-80
2023/05/02 15:21:21;;;;;;;16.60;15.10;;;15.00;1.00;;;;;;2613431;54;20463;-81
2023/05/02 15:27:09;;;;;;;16.20;14.67;;;14.80;1.00;;;;;;2612328;54;20403;-81
2023/05/02 15:32:57;;;;;;;16.00;14.90;;;15.50;1.00;;;;;;2614729;54;20158;-81
2023/05/02 15:38:45;;;;;;;16.83;15.07;;;15.40;1.00;;;;;;2614816;54;20198;-81
2023/05/02 15:44:35;;;;;;;14.23;13.33;;;15.00;1.00;;;;;;2613093;54;21622;-82
2023/05/02 15:50:24;;;;;;;15.10;14.00;;;15.00;1.00;;;;;;2614653;54;20941;-80
2023/05/02 15:56:12;;;;;;;15.73;14.63;;;15.20;1.00;;;;;;2617602;54;20414;-80
2023/05/02 16:06:05;;;;;;;15.07;13.90;;;14.70;1.00;;;;;;2613738;39;20821;-80
2023/05/02 16:11:53;;;;;;;14.50;13.50;;;15.40;1.00;;;;;;2615945;54;20411;-81
2023/05/02 16:17:41;;;;;;;16.30;15.20;;;15.40;1.00;;;;;;2615851;54;20134;-81
2023/05/02 16:23:30;;;;;;;20.80;16.20;;;16.50;1.00;;;;;;2613849;54;20422;-80
2023/05/02 16:29:18;;;;;;;16.97;15.67;;;15.70;1.00;;;;;;2616859;54;20471;-79
2023/05/02 16:35:09;;;;;;;17.30;15.70;;;14.10;1.00;;;;;;2615362;54;20209;-80
2023/05/02 16:41:01;;;;;;;19.67;14.53;;;15.00;1.00;;;;;;2615943;54;20384;-79
2023/05/02 16:46:49;;;;;;;16.03;14.47;;;15.30;1.00;;;;;;2616180;54;20411;-80
2023/05/02 16:52:37;;;;;;;15.37;14.00;;;15.00;1.00;;;;;;2615461;54;20138;-79
2023/05/02 16:58:27;;;;;;;17.37;15.70;;;14.80;1.00;;;;;;2612838;54;20422;-80
2023/05/02 17:01:33;;;;;;;16.90;15.50;;;14.10;1.00;;;;;;2614456;54;20404;-81
2023/05/02 17:03:58;;;;;;;16.27;15.07;;;13.70;1.00;;;;;;2616651;39;20469;-80
2023/05/02 17:09:46;;;;;;;16.30;15.20;;;13.70;1.00;;;;;;2614754;54;20147;-80
2023/05/02 17:15:37;;;;;;;17.23;15.00;;;13.40;1.00;;;;;;2616295;54;20134;-81
2023/05/02 17:21:26;;;;;;;16.63;15.20;;;13.20;1.00;;;;;;2615432;54;20391;-80
2023/05/02 17:27:14;;;;;;;15.53;14.30;;;12.90;1.00;;;;;;2614920;54;20383;-80
2023/05/02 17:33:02;;;;;;;16.13;14.43;;;12.70;1.00;;;;;;2615502;54;20423;-80
2023/05/02 17:38:51;;;;;;;16.53;14.13;;;12.50;1.00;;;;;;2614316;39;20684;-80
2023/05/02 17:44:39;;;;;;;14.03;13.00;;;12.20;1.00;;;;;;2615967;39;21237;-81
2023/05/02 17:50:27;;;;;;;14.17;13.07;;;12.10;1.00;;;;;;2616447;54;20391;-80
2023/05/02 17:56:17;;;;;;;14.83;13.60;;;11.90;1.00;;;;;;2614280;54;20375;-80
2023/05/02 18:06:05;;;;;;;15.30;14.07;;;11.70;1.00;;;;;;2612539;54;20430;-82
2023/05/02 18:11:54;;;;;;;15.93;14.20;;;11.50;1.00;;;;;;2615030;54;20419;-80
2023/05/02 18:17:41;;;;;;;15.93;14.63;;;11.30;1.00;;;;;;2613375;54;20426;-80
2023/05/02 18:23:29;;;;;;;15.37;14.00;;;11.10;1.00;;;;;;2615136;54;20122;-80
2023/05/02 18:29:17;;;;;;;16.50;15.17;;;11.00;1.00;;;;;;2615287;54;20153;-81
2023/05/02 18:35:11;;;;;;;15.20;13.80;;;10.80;1.00;;;;;;2615417;39;20822;-80
2023/05/02 18:40:59;;;;;;;13.97;12.90;;;10.60;1.00;;;;;;2615143;54;20383;-80
2023/05/02 18:46:49;;;;;;;14.53;13.27;;;10.40;1.00;;;;;;2612245;54;20134;-81
2023/05/02 18:52:37;;;;;;;15.43;14.00;;;10.20;1.00;;;;;;2615232;54;20538;-81
2023/05/02 18:58:25;;;;;;;15.63;14.33;;;9.90;6.90;;;;;;2610966;54;20149;-80
2023/05/02 19:01:29;;;;;;;14.70;13.70;;;9.90;6.60;;;;;;2613383;54;21339;-80
2023/05/02 19:03:56;;;;;;;15.30;14.00;;;9.90;7.50;;;;;;2610506;54;20446;-79
2023/05/02 19:09:45;;;;;;;15.67;14.10;;;9.80;9.00;;;;;;2613468;54;20384;-79
2023/05/02 19:15:34;;;;;;;16.37;14.97;;;9.60;13.70;;;;;;2613961;54;20415;-80
2023/05/02 19:21:22;;;;;;;15.13;13.80;;;9.40;19.80;;;;;;2615958;54;20406;-81
2023/05/02 19:27:10;;;;;;;14.97;13.80;;;9.10;27.40;;;;;;2613447;54;20391;-80
2023/05/02 19:32:58;;;;;;;15.00;13.63;;;8.90;38.20;;;;;;2615895;54;20150;-80
2023/05/02 19:38:48;;;;;;;14.17;12.97;;;8.70;44.20;;;;;;2615734;54;20562;-83
2023/05/02 19:44:38;;;;;;;13.47;12.60;;;8.80;43.90;;;;;;2613234;54;20353;-81
2023/05/02 19:50:25;;;;;;;15.80;14.50;;;8.60;40.60;;;;;;2612784;54;20399;-80
2023/05/02 19:56:13;;;;;;;13.23;12.33;;;8.70;41.60;;;;;;2613922;54;20135;-80
2023/05/02 20:06:03;;;;;;;14.20;12.90;;;8.60;44.70;;;;;;2613158;54;20391;-79
2023/05/02 20:11:51;;;;;;;13.90;12.47;;;8.60;42.00;;;;;;2613941;54;20434;-79
2023/05/02 20:17:39;;;;;;;11.60;10.80;;;8.50;44.80;;;;;;2613132;39;20767;-79
2023/05/02 20:23:28;;;;;;;12.30;11.33;;;8.40;50.90;;;;;;2614000;54;20150;-80
2023/05/02 20:29:16;;;;;;;12.80;11.73;;;8.20;56.20;;;;;;2614194;54;20387;-79
2023/05/02 20:35:04;;;;;;;13.10;11.90;;;8.20;60.50;;;;;;2616624;54;20142;-80
2023/05/02 20:40:51;;;;;;;13.17;12.03;;;7.90;73.80;;;;;;2614039;54;20431;-81
2023/05/02 20:46:40;;;;;;;12.30;11.23;;;7.80;81.20;;;;;;2615722;54;20166;-79
2023/05/02 20:52:28;;;;;;;11.93;11.03;;;7.70;86.70;;;;;;2615918;54;20379;-79
2023/05/02 20:58:16;;;;;;;13.13;11.97;;;7.50;99.90;;;;;;2615485;54;20977;-81
2023/05/02 21:01:32;;;;;;;12.77;11.87;;;7.40;99.90;;;;;;2616032;54;20499;-80
2023/05/02 21:03:58;;;;;;;13.07;12.07;;;7.30;99.90;;;;;;2614852;47;20206;-79
2023/05/02 21:09:46;;;;;;;13.20;11.97;;;7.10;99.90;;;;;;2615986;54;20153;-80
2023/05/02 21:15:35;;;;;;;12.83;11.83;;;7.00;99.90;;;;;;2613700;54;20370;-79
2023/05/02 21:21:23;;;;;;;13.63;12.53;;;6.70;99.90;;;;;;2615419;39;20859;-80
2023/05/02 21:27:11;;;;;;;12.50;11.60;;;6.40;99.90;;;;;;2614358;39;20401;-79
2023/05/02 21:32:59;;;;;;;12.03;10.90;;;6.20;99.90;;;;;;2614058;54;20218;-79
2023/05/02 21:38:46;;;;;;;11.60;10.60;;;6.10;99.90;;;;;;2614555;54;20204;-79
2023/05/02 21:44:34;;;;;;;11.70;10.57;;;6.00;99.90;;;;;;2612812;54;20171;-80
2023/05/02 21:50:22;;;;;;;11.00;10.00;;;5.80;99.90;;;;;;2613076;54;20419;-79
2023/05/02 21:56:10;;;;;;;13.17;10.40;;;5.70;99.90;;;;;;2613910;54;20178;-80
2023/05/02 22:06:04;;;;;;;14.13;10.47;;;5.40;99.90;;;;;;2613893;54;20672;-80
2023/05/02 22:11:52;;;;;;;11.30;10.30;;;5.40;99.90;;;;;;2614786;54;20423;-78
2023/05/02 22:17:42;;;;;;;17.87;9.90;;;5.30;99.90;;;;;;2613833;54;20154;-79
2023/05/02 22:23:29;;;;;;;17.87;11.80;;;5.10;99.90;;;;;;2614082;54;20435;-79
2023/05/02 22:29:17;;;;;;;12.50;11.23;;;5.10;99.90;;;;;;2615279;54;20719;-79
2023/05/02 22:35:06;;;;;;;11.37;10.37;;;4.90;99.90;;;;;;2614184;54;20133;-79
2023/05/02 22:40:53;;;;;;;15.57;10.43;;;4.70;99.90;;;;;;2615310;39;20885;-79
2023/05/02 22:46:41;;;;;;;12.10;10.67;;;4.70;99.90;;;;;;2614332;54;20161;-79
2023/05/02 22:52:30;;;;;;;14.37;11.23;;;4.90;99.90;;;;;;2614633;54;20138;-81
2023/05/02 22:58:17;;;;;;;15.53;10.73;;;4.60;99.90;;;;;;2614226;54;20358;-80
2023/05/02 23:01:33;;;;;;;12.50;10.43;;;4.60;99.90;;;;;;2612634;39;20826;-79
2023/05/02 23:03:58;;;;;;;12.90;11.70;;;4.40;99.90;;;;;;2612878;47;20254;-80
2023/05/02 23:09:48;;;;;;;13.53;10.93;;;4.40;99.90;;;;;;2614922;54;20184;-80
2023/05/02 23:15:36;;;;;;;13.83;12.03;;;4.20;99.90;;;;;;2614257;54;20543;-81
2023/05/02 23:21:25;;;;;;;13.30;9.60;;;4.30;99.90;;;;;;2616479;54;20917;-80
2023/05/02 23:27:13;;;;;;;11.43;10.43;;;4.10;99.90;;;;;;2614337;54;20383;-79
2023/05/02 23:33:02;;;;;;;10.40;9.40;;;4.10;99.90;;;;;;2614916;54;20479;-80
2023/05/02 23:38:50;;;;;;;11.77;10.77;;;3.90;99.90;;;;;;2614616;54;20410;-80
2023/05/02 23:44:37;;;;;;;14.27;10.90;;;3.90;99.90;;;;;;2612850;54;20377;-79
2023/05/02 23:50:25;;;;;;;13.27;11.83;;;3.80;99.90;;;;;;2613176;54;20167;-79
2023/05/02 23:56:13;;;;;;;13.90;10.73;;;3.80;99.90;;;;;;2615643;54;20932;-80
